createdAt,value
2023-03-06T00:02:16.513Z,19.10
2023-03-06T00:05:19.173Z,17.75
2023-03-06T00:08:21.676Z,24.92
2023-03-06T00:11:24.481Z,19.27
2023-03-06T00:14:27.115Z,20.08
2023-03-06T00:17:29.875Z,19.12
2023-03-06T00:20:33.166Z,17.12
2023-03-06T00:23:36.377Z,20.35
2023-03-06T00:26:39.497Z,24.73
2023-03-06T00:29:42.317Z,15.13
2023-03-06T00:32:44.849Z,17.00
2023-03-06T00:35:47.729Z,16.92
2023-03-06T00:38:50.238Z,16.52
2023-03-06T00:41:53.323Z,26.73
2023-03-06T00:44:55.763Z,21.12
2023-03-06T00:47:58.580Z,21.45
2023-03-06T00:51:01.278Z,19.40
2023-03-06T00:54:03.844Z,17.52
2023-03-06T00:57:06.111Z,19.52
2023-03-06T01:00:12.314Z,17.30
2023-03-06T01:03:14.897Z,19.33
2023-03-06T01:06:17.640Z,21.40
2023-03-06T01:09:20.020Z,25.33
2023-03-06T01:12:23.585Z,18.87
2023-03-06T01:15:26.333Z,19.08
2023-03-06T01:18:29.208Z,20.62
2023-03-06T01:21:32.293Z,18.17
2023-03-06T01:24:34.880Z,20.23
2023-03-06T01:27:37.120Z,18.80
2023-03-06T01:30:40.185Z,19.80
2023-03-06T01:33:42.446Z,14.98
2023-03-06T01:36:44.956Z,17.23
2023-03-06T01:39:47.491Z,13.88
2023-03-06T01:42:50.939Z,16.12
2023-03-06T01:46:30.854Z,16.02
2023-03-06T01:49:33.561Z,13.73
2023-03-06T01:52:43.613Z,14.65
2023-03-06T01:55:46.651Z,15.52
2023-03-06T01:58:49.717Z,14.45
2023-03-06T02:01:54.114Z,22.52
2023-03-06T02:04:57.556Z,21.73
2023-03-06T02:08:02.584Z,18.12
2023-03-06T02:11:08.147Z,10.93
2023-03-06T02:14:16.207Z,13.82
2023-03-06T02:17:21.104Z,15.23
2023-03-06T02:20:37.397Z,13.35
2023-03-06T02:23:56.057Z,14.52
2023-03-06T02:27:00.923Z,15.65
2023-03-06T02:30:09.508Z,15.57
2023-03-06T02:33:15.200Z,19.67
2023-03-06T02:36:18.067Z,14.73
2023-03-06T02:39:25.213Z,23.90
2023-03-06T02:42:29.143Z,14.15
2023-03-06T02:45:38.142Z,16.90
2023-03-06T02:48:41.513Z,14.35
2023-03-06T02:51:44.619Z,17.23
2023-03-06T02:54:47.586Z,17.52
2023-03-06T02:57:50.871Z,17.15
2023-03-06T03:00:54.645Z,14.00
2023-03-06T03:03:57.059Z,16.27
2023-03-06T03:07:00.245Z,14.48
2023-03-06T03:10:04.247Z,16.42
2023-03-06T03:13:07.714Z,14.48
2023-03-06T03:16:15.481Z,14.55
2023-03-06T03:19:19.634Z,10.40
2023-03-06T03:22:22.138Z,15.82
2023-03-06T03:25:26.226Z,13.23
2023-03-06T03:28:30.253Z,13.13
2023-03-06T03:31:33.181Z,14.05
2023-03-06T03:34:36.748Z,14.27
2023-03-06T03:37:39.847Z,12.00
2023-03-06T03:40:42.214Z,9.25
2023-03-06T03:43:45.492Z,10.63
2023-03-06T03:46:47.663Z,11.35
2023-03-06T03:49:51.121Z,12.55
2023-03-06T03:52:54.704Z,11.93
2023-03-06T03:55:57.751Z,13.50
2023-03-06T03:59:00.380Z,9.45
2023-03-06T04:02:04.891Z,13.18
2023-03-06T04:05:11.038Z,14.63
2023-03-06T04:08:13.855Z,13.10
2023-03-06T04:11:17.004Z,10.95
2023-03-06T04:14:19.794Z,11.40
2023-03-06T04:17:22.592Z,15.18
2023-03-06T04:20:26.113Z,16.83
2023-03-06T04:23:28.716Z,13.00
2023-03-06T04:26:30.971Z,14.32
2023-03-06T04:29:34.365Z,16.05
2023-03-06T04:32:37.495Z,18.00
2023-03-06T04:35:40.843Z,16.17
2023-03-06T04:38:44.441Z,21.98
2023-03-06T04:41:47.554Z,9.60
2023-03-06T04:44:50.041Z,18.83
2023-03-06T04:47:53.077Z,12.18
2023-03-06T04:50:55.216Z,12.57
2023-03-06T04:53:58.145Z,12.80
2023-03-06T04:57:00.618Z,10.50
2023-03-06T05:00:08.859Z,11.75
2023-03-06T05:03:12.555Z,11.77
2023-03-06T05:06:16.137Z,20.10
2023-03-06T05:09:18.305Z,22.17
2023-03-06T05:12:20.896Z,15.98
2023-03-06T05:15:23.337Z,19.37
2023-03-06T05:18:25.779Z,16.98
2023-03-06T05:21:28.015Z,15.23
2023-03-06T05:24:30.677Z,17.87
2023-03-06T05:27:33.080Z,21.00
2023-03-06T05:30:35.900Z,22.73
2023-03-06T05:33:38.082Z,16.40
2023-03-06T05:36:40.695Z,28.02
2023-03-06T05:39:42.908Z,34.50
2023-03-06T05:42:45.809Z,40.20
2023-03-06T05:45:50.325Z,78.90
2023-03-06T05:48:57.741Z,57.72
2023-03-06T05:52:00.965Z,79.43
2023-03-06T05:55:07.541Z,76.07
2023-03-06T05:58:09.826Z,72.50
2023-03-06T06:01:18.834Z,99.28
2023-03-06T06:04:22.647Z,62.03
2023-03-06T06:07:24.888Z,56.08
2023-03-06T06:10:27.383Z,73.37
2023-03-06T06:13:29.746Z,61.92
2023-03-06T06:16:32.237Z,67.95
2023-03-06T06:19:34.612Z,62.10
2023-03-06T06:22:40.405Z,52.45
2023-03-06T06:25:42.720Z,38.80
2023-03-06T06:28:45.664Z,49.00
2023-03-06T06:31:48.520Z,39.20
2023-03-06T06:34:51.193Z,43.22
2023-03-06T06:37:53.473Z,42.67
2023-03-06T06:41:27.190Z,36.33
2023-03-06T06:44:19.703Z,32.65
2023-03-06T06:47:24.827Z,34.55
2023-03-06T06:50:27.708Z,32.53
2023-03-06T06:53:30.649Z,30.88
2023-03-06T06:56:32.864Z,28.87
2023-03-06T06:59:35.424Z,30.12
2023-03-06T07:02:37.748Z,30.23
2023-03-06T07:05:40.518Z,25.90
2023-03-06T07:08:43.074Z,28.30
2023-03-06T07:11:48.435Z,23.42
2023-03-06T07:14:50.800Z,27.45
2023-03-06T07:17:53.582Z,29.60
2023-03-06T07:20:56.854Z,29.10
2023-03-06T07:24:00.714Z,30.20
2023-03-06T07:27:03.083Z,23.02
2023-03-06T07:30:07.101Z,19.83
2023-03-06T07:33:09.908Z,25.65
2023-03-06T07:36:13.897Z,25.98
2023-03-06T07:39:16.408Z,22.20
2023-03-06T07:42:19.741Z,16.60
2023-03-06T07:45:23.763Z,18.23
2023-03-06T07:48:27.476Z,13.20
2023-03-06T07:51:30.300Z,14.65
2023-03-06T07:54:41.113Z,18.45
2023-03-06T07:57:43.670Z,12.50
2023-03-06T08:00:46.797Z,15.43
2023-03-06T08:03:50.520Z,12.23
2023-03-06T08:06:57.721Z,16.45
2023-03-06T08:10:01.136Z,13.98
2023-03-06T08:13:04.684Z,15.60
2023-03-06T08:16:08.575Z,17.83
2023-03-06T08:19:11.049Z,13.32
2023-03-06T08:22:14.570Z,16.95
2023-03-06T08:25:17.362Z,17.42
2023-03-06T08:28:19.995Z,18.08
2023-03-06T08:31:32.939Z,16.10
2023-03-06T08:34:35.820Z,15.77
2023-03-06T08:37:38.397Z,13.90
2023-03-06T08:40:41.772Z,16.17
2023-03-06T08:43:44.117Z,15.10
2023-03-06T08:46:47.198Z,16.33
2023-03-06T08:49:49.528Z,14.82
2023-03-06T08:52:52.377Z,14.07
2023-03-06T08:55:55.016Z,18.12
2023-03-06T08:58:59.468Z,15.00
2023-03-06T09:02:01.941Z,15.25
2023-03-06T09:05:07.366Z,17.45
2023-03-06T09:08:09.911Z,18.55
2023-03-06T09:11:14.266Z,17.10
2023-03-06T09:14:16.543Z,15.38
2023-03-06T09:17:19.405Z,21.23
2023-03-06T09:20:22.101Z,14.23
2023-03-06T09:23:24.700Z,15.13
2023-03-06T09:26:39.754Z,15.63
2023-03-06T09:29:47.707Z,14.18
2023-03-06T09:32:50.423Z,23.65
2023-03-06T09:35:57.147Z,18.95
2023-03-06T09:38:59.498Z,13.13
2023-03-06T09:42:02.622Z,18.48
2023-03-06T09:45:05.551Z,15.13
2023-03-06T09:48:15.659Z,19.65
2023-03-06T09:51:22.686Z,15.68
2023-03-06T09:54:37.033Z,17.42
2023-03-06T09:57:52.545Z,19.70
2023-03-06T10:01:14.237Z,24.05
2023-03-06T10:04:34.727Z,21.80
2023-03-06T10:07:46.092Z,19.50
2023-03-06T10:10:58.690Z,19.67
2023-03-06T10:14:16.063Z,36.10
2023-03-06T10:17:21.850Z,19.98
2023-03-06T10:20:35.899Z,19.75
2023-03-06T10:23:53.478Z,21.73
2023-03-06T10:27:10.523Z,18.30
2023-03-06T10:30:50.476Z,15.18
2023-03-06T10:34:15.824Z,21.58
2023-03-06T10:37:21.807Z,19.45
2023-03-06T10:40:35.697Z,19.27
2023-03-06T10:43:38.509Z,34.67
2023-03-06T10:46:47.399Z,21.25
2023-03-06T10:49:59.781Z,20.02
2023-03-06T10:53:07.335Z,21.65
2023-03-06T10:56:10.072Z,21.87
2023-03-06T10:59:20.353Z,23.17
2023-03-06T11:02:32.878Z,17.48
2023-03-06T11:05:36.033Z,25.08
2023-03-06T11:08:39.798Z,15.82
2023-03-06T11:11:42.377Z,17.65
2023-03-06T11:14:45.030Z,15.07
2023-03-06T11:18:04.554Z,16.75
2023-03-06T11:21:25.840Z,26.87
2023-03-06T11:24:39.609Z,21.20
2023-03-06T11:27:44.874Z,24.87
2023-03-06T11:30:52.070Z,18.40
2023-03-06T11:34:03.296Z,22.73
2023-03-06T11:37:21.743Z,18.37
2023-03-06T11:40:56.028Z,22.40
2023-03-06T11:44:13.845Z,19.73
2023-03-06T11:47:26.174Z,23.03
2023-03-06T11:50:35.897Z,22.75
2023-03-06T11:53:40.108Z,17.02
2023-03-06T11:57:02.223Z,30.45
2023-03-06T12:00:04.926Z,24.73
2023-03-06T12:03:40.310Z,26.67
2023-03-06T12:06:57.729Z,21.98
2023-03-06T12:10:12.997Z,25.15
2023-03-06T12:13:20.613Z,18.62
2023-03-06T12:16:41.959Z,20.02
2023-03-06T12:19:44.646Z,27.35
2023-03-06T12:23:14.545Z,17.77
2023-03-06T12:26:35.233Z,28.17
2023-03-06T12:29:40.261Z,25.27
2023-03-06T12:32:57.591Z,21.73
2023-03-06T12:36:11.413Z,26.80
2023-03-06T12:39:50.398Z,21.83
2023-03-06T12:43:18.632Z,21.30
2023-03-06T12:46:26.807Z,20.55
2023-03-06T12:49:33.343Z,21.45
2023-03-06T12:52:36.336Z,21.25
2023-03-06T12:55:45.723Z,19.83
2023-03-06T12:58:53.061Z,26.58
2023-03-06T13:02:24.704Z,32.70
2023-03-06T13:05:52.873Z,25.35
2023-03-06T13:09:26.603Z,26.58
2023-03-06T13:12:49.909Z,24.98
2023-03-06T13:16:14.912Z,27.85
2023-03-06T13:19:17.837Z,17.70
2023-03-06T13:22:28.636Z,21.95
2023-03-06T13:25:32.648Z,26.50
2023-03-06T13:28:47.623Z,20.58
2023-03-06T13:31:53.557Z,25.83
2023-03-06T13:34:55.978Z,25.52
2023-03-06T13:38:00.380Z,24.27
2023-03-06T13:41:21.182Z,23.12
2023-03-06T13:44:23.978Z,24.05
2023-03-06T13:47:55.751Z,23.33
2023-03-06T13:51:14.895Z,21.50
2023-03-06T13:54:35.954Z,28.50
2023-03-06T13:57:57.625Z,40.03
2023-03-06T14:01:03.597Z,26.98
2023-03-06T14:04:31.822Z,20.15
2023-03-06T14:07:47.140Z,28.58
2023-03-06T14:11:17.405Z,26.00
2023-03-06T14:14:38.444Z,26.75
2023-03-06T14:17:53.114Z,21.12
2023-03-06T14:20:59.373Z,23.12
2023-03-06T14:24:04.320Z,20.40
2023-03-06T14:27:07.138Z,23.60
2023-03-06T14:30:16.528Z,26.00
2023-03-06T14:33:45.043Z,23.55
2023-03-06T14:36:50.475Z,24.10
2023-03-06T14:39:53.017Z,28.00
2023-03-06T14:43:20.411Z,26.50
2023-03-06T14:46:23.262Z,26.37
2023-03-06T14:49:26.781Z,22.98
2023-03-06T14:52:29.292Z,24.75
2023-03-06T14:55:34.690Z,38.45
2023-03-06T14:58:41.815Z,30.27
2023-03-06T15:01:48.315Z,23.85
2023-03-06T15:05:00.317Z,23.58
2023-03-06T15:08:07.378Z,23.35
2023-03-06T15:11:09.623Z,30.20
2023-03-06T15:14:18.929Z,34.70
2023-03-06T15:17:29.527Z,21.37
2023-03-06T15:20:45.417Z,22.10
2023-03-06T15:23:53.010Z,26.87
2023-03-06T15:27:00.434Z,20.83
2023-03-06T15:30:29.573Z,26.73
2023-03-06T15:33:32.188Z,24.08
2023-03-06T15:36:35.927Z,23.48
2023-03-06T15:39:40.759Z,20.88
2023-03-06T15:42:43.388Z,27.70
2023-03-06T15:45:46.404Z,21.40
2023-03-06T15:49:03.107Z,22.80
2023-03-06T15:52:09.483Z,22.27
2023-03-06T15:55:13.129Z,25.73
2023-03-06T15:58:20.384Z,21.08
2023-03-06T16:01:23.018Z,26.50
2023-03-06T16:04:26.714Z,34.70
2023-03-06T16:07:28.985Z,28.17
2023-03-06T16:10:35.872Z,20.62
2023-03-06T16:13:38.134Z,23.87
2023-03-06T16:16:40.623Z,26.95
2023-03-06T16:19:43.413Z,30.15
2023-03-06T16:22:47.756Z,23.42
2023-03-06T16:25:52.989Z,25.02
2023-03-06T16:28:56.216Z,21.48
2023-03-06T16:31:58.946Z,25.30
2023-03-06T16:35:01.838Z,21.83
2023-03-06T16:38:04.436Z,26.42
2023-03-06T16:41:07.830Z,24.17
2023-03-06T16:44:10.528Z,24.87
2023-03-06T16:47:13.408Z,26.30
2023-03-06T16:50:26.089Z,22.17
2023-03-06T16:53:29.128Z,22.02
2023-03-06T16:56:31.756Z,23.67
2023-03-06T16:59:34.809Z,20.23
2023-03-06T17:02:38.550Z,25.55
2023-03-06T17:05:43.771Z,27.87
2023-03-06T17:08:48.360Z,25.08
2023-03-06T17:11:51.711Z,23.48
2023-03-06T17:14:54.293Z,27.25
2023-03-06T17:17:57.934Z,24.08
2023-03-06T17:21:01.485Z,26.02
2023-03-06T17:24:04.731Z,23.92
2023-03-06T17:27:07.761Z,22.60
2023-03-06T17:30:11.777Z,25.08
2023-03-06T17:33:14.316Z,22.35
2023-03-06T17:36:17.290Z,28.50
2023-03-06T17:39:19.764Z,24.25
2023-03-06T17:42:22.658Z,21.58
2023-03-06T17:45:24.857Z,24.75
2023-03-06T17:48:27.690Z,26.92
2023-03-06T17:51:30.145Z,21.33
2023-03-06T17:54:33.850Z,27.25
2023-03-06T17:57:36.055Z,26.55
2023-03-06T18:00:39.781Z,25.67
2023-03-06T18:03:47.984Z,27.17
2023-03-06T18:06:50.217Z,23.35
2023-03-06T18:09:52.850Z,25.15
2023-03-06T18:12:56.571Z,23.95
2023-03-06T18:15:59.800Z,23.90
2023-03-06T18:19:02.438Z,22.80
2023-03-06T18:22:06.108Z,27.55
2023-03-06T18:25:09.595Z,23.80
2023-03-06T18:28:12.947Z,23.50
2023-03-06T18:31:20.488Z,29.95
2023-03-06T18:34:23.797Z,24.70
2023-03-06T18:37:26.028Z,21.83
2023-03-06T18:40:28.998Z,28.40
2023-03-06T18:43:31.500Z,21.35
2023-03-06T18:46:37.021Z,25.55
2023-03-06T18:49:40.562Z,18.10
2023-03-06T18:52:44.590Z,22.92
2023-03-06T18:55:51.920Z,23.33
2023-03-06T18:58:55.027Z,20.37
2023-03-06T19:01:58.500Z,16.48
2023-03-06T19:05:01.144Z,23.40
2023-03-06T19:08:03.490Z,29.58
2023-03-06T19:11:13.026Z,22.67
2023-03-06T19:14:16.186Z,22.77
2023-03-06T19:17:18.913Z,19.83
2023-03-06T19:20:22.605Z,25.15
2023-03-06T19:23:25.469Z,27.45
2023-03-06T19:26:28.660Z,22.17
2023-03-06T19:29:32.536Z,21.30
2023-03-06T19:32:34.793Z,24.17
2023-03-06T19:35:38.612Z,23.33
2023-03-06T19:38:41.670Z,25.30
2023-03-06T19:41:48.310Z,24.23
2023-03-06T19:44:50.530Z,23.23
2023-03-06T19:47:55.848Z,24.12
2023-03-06T19:51:03.586Z,21.20
2023-03-06T19:54:06.458Z,27.90
2023-03-06T19:57:08.604Z,21.90
2023-03-06T20:00:11.713Z,21.92
2023-03-06T20:03:14.745Z,25.73
2023-03-06T20:06:19.711Z,27.20
2023-03-06T20:09:22.320Z,25.48
2023-03-06T20:12:24.960Z,27.15
2023-03-06T20:15:28.143Z,23.77
2023-03-06T20:18:31.155Z,29.73
2023-03-06T20:21:37.447Z,26.77
2023-03-06T20:24:40.151Z,29.08
2023-03-06T20:27:42.634Z,25.27
2023-03-06T20:30:45.362Z,31.50
2023-03-06T20:33:50.901Z,27.33
2023-03-06T20:36:53.999Z,25.52
2023-03-06T20:39:56.349Z,28.00
2023-03-06T20:42:59.058Z,22.10
2023-03-06T20:46:03.084Z,24.48
2023-03-06T20:49:07.266Z,25.45
2023-03-06T20:52:09.778Z,27.25
2023-03-06T20:55:12.733Z,25.77
2023-03-06T20:58:14.941Z,27.90
2023-03-06T21:01:19.742Z,27.98
2023-03-06T21:04:22.387Z,28.90
2023-03-06T21:07:25.524Z,28.33
2023-03-06T21:10:28.095Z,23.38
2023-03-06T21:13:30.819Z,25.83
2023-03-06T21:16:33.192Z,24.90
2023-03-06T21:19:36.990Z,29.10
2023-03-06T21:22:39.282Z,30.25
2023-03-06T21:25:50.975Z,33.10
2023-03-06T21:28:56.089Z,27.20
2023-03-06T21:31:58.601Z,32.00
2023-03-06T21:35:01.220Z,33.75
2023-03-06T21:38:03.869Z,25.12
2023-03-06T21:41:12.992Z,31.85
2023-03-06T21:44:15.613Z,30.42
2023-03-06T21:47:18.654Z,28.25
2023-03-06T21:50:23.303Z,35.35
2023-03-06T21:53:25.582Z,34.03
2023-03-06T21:56:28.925Z,31.02
2023-03-06T21:59:31.217Z,33.53
2023-03-06T22:02:35.252Z,33.47
2023-03-06T22:05:38.091Z,34.50
2023-03-06T22:08:41.326Z,38.88
2023-03-06T22:11:44.160Z,39.42
2023-03-06T22:14:46.460Z,42.35
2023-03-06T22:17:49.538Z,37.25
2023-03-06T22:20:52.232Z,42.15
2023-03-06T22:23:57.663Z,44.35
2023-03-06T22:27:00.271Z,40.42
2023-03-06T22:30:03.306Z,41.53
2023-03-06T22:33:06.348Z,43.08
2023-03-06T22:36:12.252Z,38.25
2023-03-06T22:39:17.217Z,39.38
2023-03-06T22:42:20.043Z,40.90
2023-03-06T22:45:22.798Z,41.10
2023-03-06T22:48:25.654Z,43.13
2023-03-06T22:51:28.850Z,45.03
2023-03-06T22:54:31.433Z,43.78
2023-03-06T22:57:33.670Z,43.53
2023-03-06T23:00:36.546Z,39.08
2023-03-06T23:03:40.813Z,38.58
2023-03-06T23:06:44.632Z,42.10
2023-03-06T23:09:46.958Z,42.30
2023-03-06T23:13:07.886Z,35.78
2023-03-06T23:16:28.826Z,46.50
2023-03-06T23:19:49.968Z,44.63
2023-03-06T23:23:11.254Z,47.35
2023-03-06T23:26:17.725Z,41.30
2023-03-06T23:29:20.487Z,43.78
2023-03-06T23:32:23.266Z,51.35
2023-03-06T23:35:26.224Z,39.67
2023-03-06T23:38:32.296Z,45.42
2023-03-06T23:41:34.818Z,49.90
2023-03-06T23:44:37.012Z,47.13
2023-03-06T23:47:39.843Z,43.83
2023-03-06T23:50:42.146Z,41.25
2023-03-06T23:53:46.247Z,48.55
2023-03-06T23:56:48.605Z,43.20
2023-03-06T23:59:52.297Z,38.78
